sensor_id;sensor_type;location;lat;lon;timestamp;pressure;altitude;pressure_sealevel;temperature;humidity
78210;BME280;67485;48.816;9.930;2024-01-30T00:02:08;98168.81;;;2.96;81.07
78210;BME280;67485;48.816;9.930;2024-01-30T00:04:34;98163.63;;;2.96;81.33
78210;BME280;67485;48.816;9.930;2024-01-30T00:07:00;98175.66;;;2.94;80.82
78210;BME280;67485;48.816;9.930;2024-01-30T00:09:26;98172.88;;;2.86;81.69
78210;BME280;67485;48.816;9.930;2024-01-30T00:11:51;98176.22;;;2.82;81.63
78210;BME280;67485;48.816;9.930;2024-01-30T00:14:17;98168.75;;;2.93;81.13
78210;BME280;67485;48.816;9.930;2024-01-30T00:16:43;98180.38;;;2.75;80.51
78210;BME280;67485;48.816;9.930;2024-01-30T00:19:08;98172.38;;;2.68;81.65
78210;BME280;67485;48.816;9.930;2024-01-30T00:21:34;98175.84;;;2.67;81.62
78210;BME280;67485;48.816;9.930;2024-01-30T00:24:00;98174.09;;;2.66;81.60
78210;BME280;67485;48.816;9.930;2024-01-30T00:26:25;98177.19;;;2.54;81.67
78210;BME280;67485;48.816;9.930;2024-01-30T00:28:51;98180.59;;;2.51;81.20
78210;BME280;67485;48.816;9.930;2024-01-30T00:31:17;98192.50;;;2.45;81.36
78210;BME280;67485;48.816;9.930;2024-01-30T00:33:43;98195.97;;;2.47;80.67
78210;BME280;67485;48.816;9.930;2024-01-30T00:36:09;98187.19;;;2.40;80.79
78210;BME280;67485;48.816;9.930;2024-01-30T00:38:35;98197.56;;;2.41;80.81
78210;BME280;67485;48.816;9.930;2024-01-30T00:41:01;98199.31;;;2.42;80.61
78210;BME280;67485;48.816;9.930;2024-01-30T00:43:28;98199.66;;;2.23;80.87
78210;BME280;67485;48.816;9.930;2024-01-30T00:45:53;98183.09;;;2.18;81.31
78210;BME280;67485;48.816;9.930;2024-01-30T00:48:20;98196.72;;;2.10;81.29
78210;BME280;67485;48.816;9.930;2024-01-30T00:50:46;98189.59;;;2.03;82.40
78210;BME280;67485;48.816;9.930;2024-01-30T00:53:13;98184.53;;;1.77;82.91
78210;BME280;67485;48.816;9.930;2024-01-30T00:55:39;98185.44;;;1.78;83.09
78210;BME280;67485;48.816;9.930;2024-01-30T00:58:05;98198.09;;;1.70;83.08
78210;BME280;67485;48.816;9.930;2024-01-30T01:00:32;98180.25;;;1.78;82.90
78210;BME280;67485;48.816;9.930;2024-01-30T01:02:58;98179.47;;;1.81;82.90
78210;BME280;67485;48.816;9.930;2024-01-30T01:05:25;98188.47;;;1.65;83.56
78210;BME280;67485;48.816;9.930;2024-01-30T01:07:51;98183.84;;;1.54;84.14
78210;BME280;67485;48.816;9.930;2024-01-30T01:10:17;98178.91;;;1.62;84.54
78210;BME280;67485;48.816;9.930;2024-01-30T01:12:44;98183.78;;;1.53;84.90
78210;BME280;67485;48.816;9.930;2024-01-30T01:15:10;98188.84;;;1.50;85.53
78210;BME280;67485;48.816;9.930;2024-01-30T01:17:36;98186.69;;;1.64;85.20
78210;BME280;67485;48.816;9.930;2024-01-30T01:20:03;98182.44;;;1.64;84.72
78210;BME280;67485;48.816;9.930;2024-01-30T01:22:31;98189.31;;;1.65;84.51
78210;BME280;67485;48.816;9.930;2024-01-30T01:24:56;98188.31;;;1.60;85.23
78210;BME280;67485;48.816;9.930;2024-01-30T01:27:22;98192.38;;;1.52;85.11
78210;BME280;67485;48.816;9.930;2024-01-30T01:29:48;98188.84;;;1.50;84.99
78210;BME280;67485;48.816;9.930;2024-01-30T01:32:13;98189.72;;;1.50;85.60
78210;BME280;67485;48.816;9.930;2024-01-30T01:34:39;98193.63;;;1.37;85.60
78210;BME280;67485;48.816;9.930;2024-01-30T01:37:05;98194.34;;;1.32;85.85
78210;BME280;67485;48.816;9.930;2024-01-30T01:39:31;98196.22;;;1.37;85.61
78210;BME280;67485;48.816;9.930;2024-01-30T01:41:56;98196.19;;;1.36;85.87
78210;BME280;67485;48.816;9.930;2024-01-30T01:44:22;98195.19;;;1.32;85.17
78210;BME280;67485;48.816;9.930;2024-01-30T01:46:48;98197.94;;;1.37;84.64
78210;BME280;67485;48.816;9.930;2024-01-30T01:49:14;98194.47;;;1.36;84.62
78210;BME280;67485;48.816;9.930;2024-01-30T01:51:41;98191.06;;;1.37;84.19
78210;BME280;67485;48.816;9.930;2024-01-30T01:54:07;98197.03;;;1.36;84.50
78210;BME280;67485;48.816;9.930;2024-01-30T01:56:34;98195.19;;;1.32;84.71
78210;BME280;67485;48.816;9.930;2024-01-30T01:59:06;98193.16;;;1.22;85.66
78210;BME280;67485;48.816;9.930;2024-01-30T02:01:33;98185.44;;;1.23;85.75
78210;BME280;67485;48.816;9.930;2024-01-30T02:04:00;98190.53;;;1.20;85.29
78210;BME280;67485;48.816;9.930;2024-01-30T02:06:26;98199.09;;;1.19;85.25
78210;BME280;67485;48.816;9.930;2024-01-30T02:08:53;98192.97;;;1.16;85.32
78210;BME280;67485;48.816;9.930;2024-01-30T02:11:20;98191.41;;;1.21;85.27
78210;BME280;67485;48.816;9.930;2024-01-30T02:13:46;98196.44;;;1.18;84.69
78210;BME280;67485;48.816;9.930;2024-01-30T02:16:11;98190.34;;;1.14;84.88
78210;BME280;67485;48.816;9.930;2024-01-30T02:18:37;98199.47;;;1.04;85.67
78210;BME280;67485;48.816;9.930;2024-01-30T02:21:16;98197.03;;;1.09;85.19
78210;BME280;67485;48.816;9.930;2024-01-30T02:23:49;98201.13;;;1.02;85.42
78210;BME280;67485;48.816;9.930;2024-01-30T02:26:16;98202.06;;;1.04;85.59
78210;BME280;67485;48.816;9.930;2024-01-30T02:28:41;98206.50;;;1.08;85.48
78210;BME280;67485;48.816;9.930;2024-01-30T02:31:07;98210.47;;;0.99;85.32
78210;BME280;67485;48.816;9.930;2024-01-30T02:33:33;98202.66;;;0.97;85.50
78210;BME280;67485;48.816;9.930;2024-01-30T02:35:58;98206.06;;;0.96;86.12
78210;BME280;67485;48.816;9.930;2024-01-30T02:38:24;98200.91;;;0.96;86.54
78210;BME280;67485;48.816;9.930;2024-01-30T02:40:52;98206.06;;;0.96;86.63
78210;BME280;67485;48.816;9.930;2024-01-30T02:43:18;98193.22;;;0.97;86.59
78210;BME280;67485;48.816;9.930;2024-01-30T02:45:44;98196.53;;;0.93;87.68
78210;BME280;67485;48.816;9.930;2024-01-30T02:48:09;98193.38;;;1.02;86.61
78210;BME280;67485;48.816;9.930;2024-01-30T02:50:35;98189.59;;;0.92;86.93
78210;BME280;67485;48.816;9.930;2024-01-30T02:53:00;98196.78;;;1.01;87.55
78210;BME280;67485;48.816;9.930;2024-01-30T02:55:26;98189.09;;;1.03;86.83
78210;BME280;67485;48.816;9.930;2024-01-30T02:57:52;98190.06;;;1.06;87.54
78210;BME280;67485;48.816;9.930;2024-01-30T03:00:19;98187.38;;;1.03;86.72
78210;BME280;67485;48.816;9.930;2024-01-30T03:02:45;98188.03;;;0.97;87.44
78210;BME280;67485;48.816;9.930;2024-01-30T03:05:11;98191.59;;;1.01;87.41
78210;BME280;67485;48.816;9.930;2024-01-30T03:07:36;98188.94;;;0.98;87.61
78210;BME280;67485;48.816;9.930;2024-01-30T03:10:04;98193.69;;;0.86;88.11
78210;BME280;67485;48.816;9.930;2024-01-30T03:12:30;98190.09;;;0.80;88.31
78210;BME280;67485;48.816;9.930;2024-01-30T03:14:55;98183.56;;;0.92;88.12
78210;BME280;67485;48.816;9.930;2024-01-30T03:17:21;98186.88;;;0.88;88.07
78210;BME280;67485;48.816;9.930;2024-01-30T03:19:47;98196.88;;;0.78;88.26
78210;BME280;67485;48.816;9.930;2024-01-30T03:22:12;98188.09;;;0.73;87.85
78210;BME280;67485;48.816;9.930;2024-01-30T03:24:38;98195.03;;;0.74;88.45
78210;BME280;67485;48.816;9.930;2024-01-30T03:27:04;98189.53;;;0.65;88.72
78210;BME280;67485;48.816;9.930;2024-01-30T03:29:29;98187.69;;;0.61;89.14
78210;BME280;67485;48.816;9.930;2024-01-30T03:31:55;98194.38;;;0.56;89.17
78210;BME280;67485;48.816;9.930;2024-01-30T03:34:21;98192.81;;;0.59;88.32
78210;BME280;67485;48.816;9.930;2024-01-30T03:36:46;98206.34;;;0.54;89.04
78210;BME280;67485;48.816;9.930;2024-01-30T03:39:12;98198.59;;;0.54;89.06
78210;BME280;67485;48.816;9.930;2024-01-30T03:41:37;98200.97;;;0.47;89.10
78210;BME280;67485;48.816;9.930;2024-01-30T03:44:03;98195.81;;;0.47;89.05
78210;BME280;67485;48.816;9.930;2024-01-30T03:46:29;98194.84;;;0.44;90.15
78210;BME280;67485;48.816;9.930;2024-01-30T03:48:54;98199.88;;;0.41;90.83
78210;BME280;67485;48.816;9.930;2024-01-30T03:51:20;98201.47;;;0.37;90.47
78210;BME280;67485;48.816;9.930;2024-01-30T03:53:46;98190.25;;;0.35;90.04
78210;BME280;67485;48.816;9.930;2024-01-30T03:56:12;98206.38;;;0.29;89.34
78210;BME280;67485;48.816;9.930;2024-01-30T03:58:39;98196.81;;;0.27;89.12
78210;BME280;67485;48.816;9.930;2024-01-30T04:01:04;98203.50;;;0.22;89.30
78210;BME280;67485;48.816;9.930;2024-01-30T04:03:30;98201.84;;;0.24;90.12
78210;BME280;67485;48.816;9.930;2024-01-30T04:05:56;98204.56;;;0.27;89.67
78210;BME280;67485;48.816;9.930;2024-01-30T04:08:21;98203.69;;;0.26;89.56
78210;BME280;67485;48.816;9.930;2024-01-30T04:10:47;98201.84;;;0.24;89.49
78210;BME280;67485;48.816;9.930;2024-01-30T04:13:13;98206.09;;;0.22;89.92
78210;BME280;67485;48.816;9.930;2024-01-30T04:15:39;98202.56;;;0.20;90.47
78210;BME280;67485;48.816;9.930;2024-01-30T04:18:05;98204.09;;;0.14;90.72
78210;BME280;67485;48.816;9.930;2024-01-30T04:20:31;98206.03;;;0.20;90.48
78210;BME280;67485;48.816;9.930;2024-01-30T04:22:57;98213.06;;;0.24;90.02
78210;BME280;67485;48.816;9.930;2024-01-30T04:25:22;98208.31;;;0.12;90.85
78210;BME280;67485;48.816;9.930;2024-01-30T04:27:48;98207.44;;;0.12;91.30
78210;BME280;67485;48.816;9.930;2024-01-30T04:30:15;98207.13;;;0.27;91.33
78210;BME280;67485;48.816;9.930;2024-01-30T04:32:40;98208.47;;;0.41;90.55
78210;BME280;67485;48.816;9.930;2024-01-30T04:35:06;98209.22;;;0.37;90.69
78210;BME280;67485;48.816;9.930;2024-01-30T04:37:32;98210.66;;;0.29;91.04
78210;BME280;67485;48.816;9.930;2024-01-30T04:39:58;98208.63;;;0.20;90.63
78210;BME280;67485;48.816;9.930;2024-01-30T04:42:23;98209.66;;;0.25;90.86
78210;BME280;67485;48.816;9.930;2024-01-30T04:44:49;98201.84;;;0.24;90.26
78210;BME280;67485;48.816;9.930;2024-01-30T04:47:16;98201.75;;;0.21;90.33
78210;BME280;67485;48.816;9.930;2024-01-30T04:49:41;98203.38;;;0.19;90.48
78210;BME280;67485;48.816;9.930;2024-01-30T04:52:08;98210.19;;;0.17;90.66
78210;BME280;67485;48.816;9.930;2024-01-30T04:54:35;98207.41;;;0.10;91.37
78210;BME280;67485;48.816;9.930;2024-01-30T04:57:01;98215.47;;;0.20;91.56
78210;BME280;67485;48.816;9.930;2024-01-30T04:59:27;98210.19;;;0.17;91.27
78210;BME280;67485;48.816;9.930;2024-01-30T05:01:53;98209.25;;;0.14;91.58
78210;BME280;67485;48.816;9.930;2024-01-30T05:04:19;98213.00;;;0.23;91.05
78210;BME280;67485;48.816;9.930;2024-01-30T05:06:46;98209.53;;;0.22;91.16
78210;BME280;67485;48.816;9.930;2024-01-30T05:09:12;98213.91;;;0.25;90.49
78210;BME280;67485;48.816;9.930;2024-01-30T05:11:41;98215.59;;;0.23;90.91
78210;BME280;67485;48.816;9.930;2024-01-30T05:14:07;98213.16;;;0.27;90.76
78210;BME280;67485;48.816;9.930;2024-01-30T05:16:33;98222.47;;;0.24;90.38
78210;BME280;67485;48.816;9.930;2024-01-30T05:18:59;98214.47;;;0.16;91.13
78210;BME280;67485;48.816;9.930;2024-01-30T05:21:25;98224.84;;;0.18;91.43
78210;BME280;67485;48.816;9.930;2024-01-30T05:23:50;98217.25;;;0.22;91.34
78210;BME280;67485;48.816;9.930;2024-01-30T05:26:16;98219.75;;;0.19;91.00
78210;BME280;67485;48.816;9.930;2024-01-30T05:28:42;98213.38;;;0.09;90.85
78210;BME280;67485;48.816;9.930;2024-01-30T05:31:10;98218.53;;;0.09;90.64
78210;BME280;67485;48.816;9.930;2024-01-30T05:33:36;98224.97;;;-0.02;91.27
78210;BME280;67485;48.816;9.930;2024-01-30T05:36:02;98215.72;;;0.03;91.22
78210;BME280;67485;48.816;9.930;2024-01-30T05:38:29;98214.66;;;-0.02;91.42
78210;BME280;67485;48.816;9.930;2024-01-30T05:40:55;98222.28;;;-0.05;91.43
78210;BME280;67485;48.816;9.930;2024-01-30T05:43:23;98216.19;;;-0.07;91.89
78210;BME280;67485;48.816;9.930;2024-01-30T05:45:49;98218.06;;;-0.03;91.84
78210;BME280;67485;48.816;9.930;2024-01-30T05:48:15;98228.50;;;0.00;91.66
78210;BME280;67485;48.816;9.930;2024-01-30T05:50:41;98217.13;;;-0.05;91.48
78210;BME280;67485;48.816;9.930;2024-01-30T05:53:07;98215.84;;;-0.17;91.87
78210;BME280;67485;48.816;9.930;2024-01-30T05:55:32;98222.50;;;-0.22;92.35
78210;BME280;67485;48.816;9.930;2024-01-30T05:57:58;98219.00;;;-0.24;92.68
78210;BME280;67485;48.816;9.930;2024-01-30T06:00:23;98226.94;;;-0.18;92.57
78210;BME280;67485;48.816;9.930;2024-01-30T06:02:49;98224.50;;;-0.14;92.76
78210;BME280;67485;48.816;9.930;2024-01-30T06:05:15;98223.94;;;-0.07;93.00
78210;BME280;67485;48.816;9.930;2024-01-30T06:07:40;98220.88;;;0.03;92.99
78210;BME280;67485;48.816;9.930;2024-01-30T06:10:06;98218.63;;;0.12;92.93
78210;BME280;67485;48.816;9.930;2024-01-30T06:12:34;98217.66;;;0.09;92.22
78210;BME280;67485;48.816;9.930;2024-01-30T06:15:00;98217.00;;;0.14;92.91
78210;BME280;67485;48.816;9.930;2024-01-30T06:17:26;98223.13;;;0.18;92.65
78210;BME280;67485;48.816;9.930;2024-01-30T06:19:52;98223.38;;;0.24;92.46
78210;BME280;67485;48.816;9.930;2024-01-30T06:22:18;98220.13;;;0.30;92.10
78210;BME280;67485;48.816;9.930;2024-01-30T06:24:43;98220.84;;;0.26;92.14
78210;BME280;67485;48.816;9.930;2024-01-30T06:27:10;98222.47;;;0.24;92.00
78210;BME280;67485;48.816;9.930;2024-01-30T06:29:36;98217.00;;;0.14;91.95
78210;BME280;67485;48.816;9.930;2024-01-30T06:32:02;98223.78;;;0.12;92.21
78210;BME280;67485;48.816;9.930;2024-01-30T06:34:27;98224.78;;;0.16;92.71
78210;BME280;67485;48.816;9.930;2024-01-30T06:36:53;98224.63;;;0.11;92.00
78210;BME280;67485;48.816;9.930;2024-01-30T06:39:19;98214.22;;;0.10;92.04
78210;BME280;67485;48.816;9.930;2024-01-30T06:41:44;98222.97;;;0.13;92.17
78210;BME280;67485;48.816;9.930;2024-01-30T06:44:12;98218.63;;;0.12;92.25
78210;BME280;67485;48.816;9.930;2024-01-30T06:46:38;98220.50;;;0.17;91.70
78210;BME280;67485;48.816;9.930;2024-01-30T06:49:04;98211.84;;;0.14;91.06
78210;BME280;67485;48.816;9.930;2024-01-30T06:51:30;98222.16;;;0.14;91.36
78210;BME280;67485;48.816;9.930;2024-01-30T06:53:56;98224.84;;;0.18;91.33
78210;BME280;67485;48.816;9.930;2024-01-30T06:56:21;98226.91;;;0.26;90.79
78210;BME280;67485;48.816;9.930;2024-01-30T06:58:48;98237.25;;;0.28;90.17
78210;BME280;67485;48.816;9.930;2024-01-30T07:01:14;98237.84;;;0.21;90.48
78210;BME280;67485;48.816;9.930;2024-01-30T07:03:40;98236.31;;;0.26;90.18
78210;BME280;67485;48.816;9.930;2024-01-30T07:06:06;98235.00;;;0.37;89.88
78210;BME280;67485;48.816;9.930;2024-01-30T07:08:31;98245.44;;;0.40;89.55
78210;BME280;67485;48.816;9.930;2024-01-30T07:10:57;98243.13;;;0.48;88.96
78210;BME280;67485;48.816;9.930;2024-01-30T07:13:23;98237.31;;;0.54;88.41
78210;BME280;67485;48.816;9.930;2024-01-30T07:15:48;98238.41;;;0.60;88.49
78210;BME280;67485;48.816;9.930;2024-01-30T07:18:15;98240.91;;;0.59;88.60
78210;BME280;67485;48.816;9.930;2024-01-30T07:20:41;98247.97;;;0.63;87.94
78210;BME280;67485;48.816;9.930;2024-01-30T07:23:13;98246.22;;;0.62;87.83
78210;BME280;67485;48.816;9.930;2024-01-30T07:25:41;98246.31;;;0.65;88.23
78210;BME280;67485;48.816;9.930;2024-01-30T07:28:07;98248.06;;;0.66;87.85
78210;BME280;67485;48.816;9.930;2024-01-30T07:30:35;98250.50;;;0.61;88.23
78210;BME280;67485;48.816;9.930;2024-01-30T07:33:00;98249.59;;;0.61;88.98
78210;BME280;67485;48.816;9.930;2024-01-30T07:35:26;98249.94;;;0.70;89.41
78210;BME280;67485;48.816;9.930;2024-01-30T07:37:52;98252.88;;;0.81;88.97
78210;BME280;67485;48.816;9.930;2024-01-30T07:40:18;98254.91;;;0.90;89.08
78210;BME280;67485;48.816;9.930;2024-01-30T07:42:43;98259.38;;;0.94;88.31
78210;BME280;67485;48.816;9.930;2024-01-30T07:45:09;98257.91;;;1.02;88.27
78210;BME280;67485;48.816;9.930;2024-01-30T07:47:35;98259.88;;;1.09;88.19
78210;BME280;67485;48.816;9.930;2024-01-30T07:50:00;98265.06;;;1.09;87.94
78210;BME280;67485;48.816;9.930;2024-01-30T07:52:26;98263.78;;;1.24;87.37
78210;BME280;67485;48.816;9.930;2024-01-30T07:54:52;98258.97;;;1.33;87.57
78210;BME280;67485;48.816;9.930;2024-01-30T07:57:19;98259.25;;;1.42;87.42
78210;BME280;67485;48.816;9.930;2024-01-30T07:59:45;98253.66;;;1.56;86.90
78210;BME280;67485;48.816;9.930;2024-01-30T08:02:12;98262.47;;;1.62;86.22
78210;BME280;67485;48.816;9.930;2024-01-30T08:04:38;98264.38;;;1.68;85.57
78210;BME280;67485;48.816;9.930;2024-01-30T08:07:04;98260.22;;;1.73;85.79
78210;BME280;67485;48.816;9.930;2024-01-30T08:09:29;98259.56;;;1.79;85.19
78210;BME280;67485;48.816;9.930;2024-01-30T08:11:55;98262.06;;;1.77;85.47
78210;BME280;67485;48.816;9.930;2024-01-30T08:14:21;98252.22;;;1.93;85.18
78210;BME280;67485;48.816;9.930;2024-01-30T08:16:46;98260.53;;;2.11;85.28
78210;BME280;67485;48.816;9.930;2024-01-30T08:19:12;98258.13;;;2.18;84.83
78210;BME280;67485;48.816;9.930;2024-01-30T08:21:38;98259.97;;;2.22;84.00
78210;BME280;67485;48.816;9.930;2024-01-30T08:24:04;98253.91;;;2.21;84.38
78210;BME280;67485;48.816;9.930;2024-01-30T08:26:31;98256.56;;;2.23;83.91
78210;BME280;67485;48.816;9.930;2024-01-30T08:28:57;98246.28;;;2.26;84.58
78210;BME280;67485;48.816;9.930;2024-01-30T08:31:23;98256.56;;;2.23;84.19
78210;BME280;67485;48.816;9.930;2024-01-30T08:33:48;98258.41;;;2.27;84.69
78210;BME280;67485;48.816;9.930;2024-01-30T08:36:15;98251.00;;;2.39;84.45
78210;BME280;67485;48.816;9.930;2024-01-30T08:38:41;98252.91;;;2.47;83.92
78210;BME280;67485;48.816;9.930;2024-01-30T08:41:07;98246.22;;;2.53;83.66
78210;BME280;67485;48.816;9.930;2024-01-30T08:43:33;98254.28;;;2.64;83.72
78210;BME280;67485;48.816;9.930;2024-01-30T08:46:02;98261.63;;;2.81;83.14
78210;BME280;67485;48.816;9.930;2024-01-30T08:48:28;98256.16;;;3.02;82.48
78210;BME280;67485;48.816;9.930;2024-01-30T08:50:53;98251.84;;;3.02;82.02
78210;BME280;67485;48.816;9.930;2024-01-30T08:53:19;98251.91;;;3.05;81.92
78210;BME280;67485;48.816;9.930;2024-01-30T08:55:45;98244.38;;;3.13;81.39
78210;BME280;67485;48.816;9.930;2024-01-30T08:58:11;98245.59;;;3.29;81.66
78210;BME280;67485;48.816;9.930;2024-01-30T09:00:36;98242.78;;;3.55;80.95
78210;BME280;67485;48.816;9.930;2024-01-30T09:03:03;98243.84;;;4.01;79.23
78210;BME280;67485;48.816;9.930;2024-01-30T09:05:29;98237.44;;;4.25;78.00
78210;BME280;67485;48.816;9.930;2024-01-30T09:07:55;98243.16;;;4.50;76.86
78210;BME280;67485;48.816;9.930;2024-01-30T09:10:21;98237.66;;;4.79;75.70
78210;BME280;67485;48.816;9.930;2024-01-30T09:12:47;98239.97;;;5.11;74.00
78210;BME280;67485;48.816;9.930;2024-01-30T09:15:13;98239.44;;;5.30;73.11
78210;BME280;67485;48.816;9.930;2024-01-30T09:17:39;98233.66;;;5.47;72.87
78210;BME280;67485;48.816;9.930;2024-01-30T09:20:05;98239.22;;;5.70;71.92
78210;BME280;67485;48.816;9.930;2024-01-30T09:22:31;98239.53;;;5.90;71.11
78210;BME280;67485;48.816;9.930;2024-01-30T09:24:57;98241.06;;;5.77;71.49
78210;BME280;67485;48.816;9.930;2024-01-30T09:27:23;98246.00;;;6.17;70.72
78210;BME280;67485;48.816;9.930;2024-01-30T09:29:49;98244.78;;;6.56;70.32
78210;BME280;67485;48.816;9.930;2024-01-30T09:32:15;98252.28;;;7.07;68.62
78210;BME280;67485;48.816;9.930;2024-01-30T09:34:41;98245.56;;;7.30;68.02
78210;BME280;67485;48.816;9.930;2024-01-30T09:37:07;98252.53;;;7.35;67.64
78210;BME280;67485;48.816;9.930;2024-01-30T09:39:33;98249.19;;;7.48;67.07
78210;BME280;67485;48.816;9.930;2024-01-30T09:42:17;98242.16;;;7.41;67.24
78210;BME280;67485;48.816;9.930;2024-01-30T09:44:44;98237.81;;;7.38;67.56
78210;BME280;67485;48.816;9.930;2024-01-30T09:47:11;98246.66;;;7.57;67.65
78210;BME280;67485;48.816;9.930;2024-01-30T09:49:38;98242.66;;;8.06;66.77
78210;BME280;67485;48.816;9.930;2024-01-30T09:52:05;98249.59;;;8.01;65.29
78210;BME280;67485;48.816;9.930;2024-01-30T09:54:31;98246.31;;;8.36;62.94
78210;BME280;67485;48.816;9.930;2024-01-30T09:56:59;98246.44;;;8.53;62.64
78210;BME280;67485;48.816;9.930;2024-01-30T09:59:25;98238.63;;;8.70;61.93
78210;BME280;67485;48.816;9.930;2024-01-30T10:01:51;98245.75;;;9.06;60.70
78210;BME280;67485;48.816;9.930;2024-01-30T10:04:17;98240.56;;;9.47;60.10
78210;BME280;67485;48.816;9.930;2024-01-30T10:06:42;98240.56;;;9.68;59.66
78210;BME280;67485;48.816;9.930;2024-01-30T10:09:08;98238.78;;;10.04;58.11
78210;BME280;67485;48.816;9.930;2024-01-30T10:11:36;98234.41;;;10.02;56.56
78210;BME280;67485;48.816;9.930;2024-01-30T10:14:02;98234.31;;;10.48;54.90
78210;BME280;67485;48.816;9.930;2024-01-30T10:16:28;98236.03;;;10.59;54.58
78210;BME280;67485;48.816;9.930;2024-01-30T10:18:53;98235.78;;;11.05;54.45
78210;BME280;67485;48.816;9.930;2024-01-30T10:21:19;98229.44;;;11.43;55.98
78210;BME280;67485;48.816;9.930;2024-01-30T10:23:45;98220.88;;;12.21;53.96
78210;BME280;67485;48.816;9.930;2024-01-30T10:26:10;98214.56;;;13.04;52.95
78210;BME280;67485;48.816;9.930;2024-01-30T10:28:36;98212.69;;;13.73;49.46
78210;BME280;67485;48.816;9.930;2024-01-30T10:31:02;98214.75;;;14.04;47.13
78210;BME280;67485;48.816;9.930;2024-01-30T10:33:31;98208.53;;;14.07;46.20
78210;BME280;67485;48.816;9.930;2024-01-30T10:36:01;98218.06;;;14.16;47.19
78210;BME280;67485;48.816;9.930;2024-01-30T10:38:31;98209.50;;;14.50;46.36
78210;BME280;67485;48.816;9.930;2024-01-30T10:40:58;98210.84;;;13.77;46.00
78210;BME280;67485;48.816;9.930;2024-01-30T10:43:31;98214.09;;;12.74;46.39
78210;BME280;67485;48.816;9.930;2024-01-30T10:46:06;98216.06;;;12.58;48.74
78210;BME280;67485;48.816;9.930;2024-01-30T10:48:36;98221.22;;;12.68;47.96
78210;BME280;67485;48.816;9.930;2024-01-30T10:51:05;98218.75;;;12.54;47.42
78210;BME280;67485;48.816;9.930;2024-01-30T10:53:31;98206.34;;;12.65;48.49
78210;BME280;67485;48.816;9.930;2024-01-30T10:56:00;98205.34;;;13.36;46.84
78210;BME280;67485;48.816;9.930;2024-01-30T10:58:26;98203.34;;;14.04;44.64
78210;BME280;67485;48.816;9.930;2024-01-30T11:00:52;98203.13;;;13.66;46.30
78210;BME280;67485;48.816;9.930;2024-01-30T11:03:18;98214.63;;;13.01;46.04
78210;BME280;67485;48.816;9.930;2024-01-30T11:05:49;98213.09;;;12.83;46.76
78210;BME280;67485;48.816;9.930;2024-01-30T11:08:22;98198.06;;;13.54;45.56
78210;BME280;67485;48.816;9.930;2024-01-30T11:10:49;98202.97;;;13.75;45.39
78210;BME280;67485;48.816;9.930;2024-01-30T11:13:15;98207.06;;;13.93;44.60
78210;BME280;67485;48.816;9.930;2024-01-30T11:15:41;98206.41;;;14.27;45.21
78210;BME280;67485;48.816;9.930;2024-01-30T11:18:06;98202.44;;;14.50;44.26
78210;BME280;67485;48.816;9.930;2024-01-30T11:20:32;98198.72;;;14.17;44.48
78210;BME280;67485;48.816;9.930;2024-01-30T11:22:59;98202.22;;;14.16;45.14
78210;BME280;67485;48.816;9.930;2024-01-30T11:25:27;98199.72;;;13.61;45.81
78210;BME280;67485;48.816;9.930;2024-01-30T11:27:55;98199.59;;;13.11;46.32
78210;BME280;67485;48.816;9.930;2024-01-30T11:30:24;98199.38;;;12.61;46.35
78210;BME280;67485;48.816;9.930;2024-01-30T11:35:32;98192.78;;;12.26;47.50
78210;BME280;67485;48.816;9.930;2024-01-30T11:37:59;98195.00;;;11.77;48.22
78210;BME280;67485;48.816;9.930;2024-01-30T11:40:27;98190.69;;;11.70;48.32
78210;BME280;67485;48.816;9.930;2024-01-30T11:42:54;98195.09;;;11.68;48.80
78210;BME280;67485;48.816;9.930;2024-01-30T11:45:20;98189.91;;;11.62;47.79
78210;BME280;67485;48.816;9.930;2024-01-30T11:47:46;98188.13;;;11.64;47.67
78210;BME280;67485;48.816;9.930;2024-01-30T11:50:12;98191.66;;;11.60;48.19
78210;BME280;67485;48.816;9.930;2024-01-30T11:52:38;98178.66;;;11.46;47.77
78210;BME280;67485;48.816;9.930;2024-01-30T11:55:04;98180.41;;;11.44;48.96
78210;BME280;67485;48.816;9.930;2024-01-30T11:57:30;98176.97;;;11.37;48.18
78210;BME280;67485;48.816;9.930;2024-01-30T11:59:55;98179.56;;;11.40;49.11
78210;BME280;67485;48.816;9.930;2024-01-30T12:02:21;98174.38;;;11.32;48.93
78210;BME280;67485;48.816;9.930;2024-01-30T12:04:47;98180.44;;;11.39;48.09
78210;BME280;67485;48.816;9.930;2024-01-30T12:07:13;98172.59;;;11.38;48.49
78210;BME280;67485;48.816;9.930;2024-01-30T12:09:41;98171.63;;;11.49;47.91
78210;BME280;67485;48.816;9.930;2024-01-30T12:12:07;98175.13;;;11.48;48.89
78210;BME280;67485;48.816;9.930;2024-01-30T12:14:40;98170.75;;;11.50;48.66
78210;BME280;67485;48.816;9.930;2024-01-30T12:17:06;98171.66;;;11.45;48.43
78210;BME280;67485;48.816;9.930;2024-01-30T12:19:34;98167.28;;;11.45;48.69
78210;BME280;67485;48.816;9.930;2024-01-30T12:21:59;98165.34;;;11.66;48.32
78210;BME280;67485;48.816;9.930;2024-01-30T12:24:26;98166.81;;;11.98;48.66
78210;BME280;67485;48.816;9.930;2024-01-30T12:26:56;98157.72;;;12.27;47.05
78210;BME280;67485;48.816;9.930;2024-01-30T12:29:22;98165.91;;;12.72;47.74
78210;BME280;67485;48.816;9.930;2024-01-30T12:31:48;98162.00;;;13.01;45.91
78210;BME280;67485;48.816;9.930;2024-01-30T12:34:18;98155.94;;;12.96;45.49
78210;BME280;67485;48.816;9.930;2024-01-30T12:36:47;98146.56;;;13.34;46.48
78210;BME280;67485;48.816;9.930;2024-01-30T12:39:14;98147.59;;;13.24;45.15
78210;BME280;67485;48.816;9.930;2024-01-30T12:41:40;98150.53;;;13.05;45.94
78210;BME280;67485;48.816;9.930;2024-01-30T12:44:06;98157.56;;;13.03;45.91
78210;BME280;67485;48.816;9.930;2024-01-30T12:46:34;98151.56;;;12.95;46.25
78210;BME280;67485;48.816;9.930;2024-01-30T12:49:00;98156.13;;;12.80;46.51
78210;BME280;67485;48.816;9.930;2024-01-30T12:51:26;98145.69;;;12.77;46.84
78210;BME280;67485;48.816;9.930;2024-01-30T12:53:52;98149.25;;;12.73;46.67
78210;BME280;67485;48.816;9.930;2024-01-30T12:56:17;98151.16;;;12.60;47.34
78210;BME280;67485;48.816;9.930;2024-01-30T12:58:43;98154.84;;;12.45;46.82
78210;BME280;67485;48.816;9.930;2024-01-30T13:01:09;98141.88;;;12.33;46.45
78210;BME280;67485;48.816;9.930;2024-01-30T13:03:35;98148.94;;;12.31;47.85
78210;BME280;67485;48.816;9.930;2024-01-30T13:06:01;98143.66;;;12.31;48.07